Vladimir, Russia
Current Conditions -  °F | °C
As of 6:00 PM on Saturday 25 Oct 2014 (Local Time) from UUDL Reporting Station
Clear Clear  
Wind Chill: 16°   Ceiling: Unl
Heat Index: 16°   Visibility: 6mi
Dew Point:   Wind: 2mph
Humidity: 73%   Direction: 180°S
Pressure: 30.62"   Gusts: NA
Location:  56.14°N, 40.4°E
Report Text: UUDL 251500Z 18001MPS CAVOK M09/M13 Q1037 NOSIG RMK QFE76923490250
Loading
Personal Weather Stations






























Interactive Weather Map
Tropical Storm Tracking
New forecast layout! Learn more

10-Day Weather Forecast

Advertisements
Track Severe Weather on mobile